sensor_id;sensor_type;location;lat;lon;timestamp;pressure;altitude;pressure_sealevel;temperature;humidity
2178;BME280;1095;50.992;6.798;2023-06-22T00:00:50;100982.47;;;22.61;69.75
2178;BME280;1095;50.992;6.798;2023-06-22T00:03:19;100975.03;;;22.63;69.53
2178;BME280;1095;50.992;6.798;2023-06-22T00:05:47;100981.19;;;22.64;69.36
2178;BME280;1095;50.992;6.798;2023-06-22T00:08:14;100977.34;;;22.60;69.49
2178;BME280;1095;50.992;6.798;2023-06-22T00:10:42;100978.84;;;22.56;69.21
2178;BME280;1095;50.992;6.798;2023-06-22T00:13:09;100974.53;;;22.55;69.15
2178;BME280;1095;50.992;6.798;2023-06-22T00:15:37;100980.78;;;22.48;69.42
2178;BME280;1095;50.992;6.798;2023-06-22T00:18:04;100971.50;;;22.51;69.62
2178;BME280;1095;50.992;6.798;2023-06-22T00:20:32;100977.75;;;22.45;69.63
2178;BME280;1095;50.992;6.798;2023-06-22T00:23:03;100982.03;;;22.46;69.79
2178;BME280;1095;50.992;6.798;2023-06-22T00:25:33;100983.66;;;22.47;69.09
2178;BME280;1095;50.992;6.798;2023-06-22T00:27:59;100981.44;;;22.44;69.41
2178;BME280;1095;50.992;6.798;2023-06-22T00:30:26;100981.31;;;22.39;69.14
2178;BME280;1095;50.992;6.798;2023-06-22T00:32:52;100970.06;;;22.37;69.17
2178;BME280;1095;50.992;6.798;2023-06-22T00:35:19;100972.34;;;22.33;69.01
2178;BME280;1095;50.992;6.798;2023-06-22T00:37:47;100984.88;;;22.33;69.15
2178;BME280;1095;50.992;6.798;2023-06-22T00:40:14;100981.63;;;22.31;69.51
2178;BME280;1095;50.992;6.798;2023-06-22T00:42:46;100976.88;;;22.33;69.34
2178;BME280;1095;50.992;6.798;2023-06-22T00:45:13;100983.63;;;22.35;69.36
2178;BME280;1095;50.992;6.798;2023-06-22T00:47:40;100981.09;;;22.40;69.15
2178;BME280;1095;50.992;6.798;2023-06-22T00:50:12;100977.53;;;22.28;69.10
2178;BME280;1095;50.992;6.798;2023-06-22T00:52:43;100984.72;;;22.28;69.23
2178;BME280;1095;50.992;6.798;2023-06-22T00:55:12;100989.47;;;22.26;69.37
2178;BME280;1095;50.992;6.798;2023-06-22T00:57:43;100977.31;;;22.30;68.94
2178;BME280;1095;50.992;6.798;2023-06-22T01:00:11;100963.22;;;22.11;69.31
2178;BME280;1095;50.992;6.798;2023-06-22T01:02:45;100982.69;;;22.11;69.57
2178;BME280;1095;50.992;6.798;2023-06-22T01:05:17;100980.69;;;22.07;69.54
2178;BME280;1095;50.992;6.798;2023-06-22T01:07:53;100972.34;;;22.03;69.71
2178;BME280;1095;50.992;6.798;2023-06-22T01:10:29;100983.63;;;21.99;70.01
2178;BME280;1095;50.992;6.798;2023-06-22T01:13:03;100973.19;;;21.97;70.19
2178;BME280;1095;50.992;6.798;2023-06-22T01:15:33;100975.84;;;21.97;69.85
2178;BME280;1095;50.992;6.798;2023-06-22T01:18:04;100967.41;;;22.00;69.82
2178;BME280;1095;50.992;6.798;2023-06-22T01:20:34;100966.81;;;21.98;70.30
2178;BME280;1095;50.992;6.798;2023-06-22T01:23:10;100954.84;;;21.89;70.22
2178;BME280;1095;50.992;6.798;2023-06-22T01:25:46;100954.69;;;21.84;70.25
2178;BME280;1095;50.992;6.798;2023-06-22T01:28:32;100955.94;;;21.81;70.42
2178;BME280;1095;50.992;6.798;2023-06-22T01:31:01;100966.38;;;21.83;70.64
2178;BME280;1095;50.992;6.798;2023-06-22T01:33:33;100955.13;;;21.81;70.77
2178;BME280;1095;50.992;6.798;2023-06-22T01:36:01;100952.69;;;21.79;70.87
2178;BME280;1095;50.992;6.798;2023-06-22T01:38:29;100948.28;;;21.73;70.83
2178;BME280;1095;50.992;6.798;2023-06-22T01:40:57;100947.44;;;21.73;70.64
2178;BME280;1095;50.992;6.798;2023-06-22T01:43:25;100947.09;;;21.69;71.23
2178;BME280;1095;50.992;6.798;2023-06-22T01:45:54;100943.97;;;21.72;70.99
2178;BME280;1095;50.992;6.798;2023-06-22T01:48:22;100945.22;;;21.70;71.36
2178;BME280;1095;50.992;6.798;2023-06-22T01:50:51;100943.00;;;21.67;71.38
2178;BME280;1095;50.992;6.798;2023-06-22T01:53:18;100937.09;;;21.65;71.67
2178;BME280;1095;50.992;6.798;2023-06-22T01:55:44;100941.00;;;21.62;71.39
2178;BME280;1095;50.992;6.798;2023-06-22T01:58:11;100935.84;;;21.67;71.52
2178;BME280;1095;50.992;6.798;2023-06-22T02:00:41;100930.88;;;21.71;71.27
2178;BME280;1095;50.992;6.798;2023-06-22T02:03:15;100938.50;;;21.67;71.18
2178;BME280;1095;50.992;6.798;2023-06-22T02:05:48;100934.88;;;21.62;71.46
2178;BME280;1095;50.992;6.798;2023-06-22T02:08:19;100934.19;;;21.66;71.36
2178;BME280;1095;50.992;6.798;2023-06-22T02:10:48;100931.91;;;21.70;71.45
2178;BME280;1095;50.992;6.798;2023-06-22T02:13:15;100929.47;;;21.68;71.00
2178;BME280;1095;50.992;6.798;2023-06-22T02:15:43;100935.97;;;21.72;71.25
2178;BME280;1095;50.992;6.798;2023-06-22T02:18:11;100942.47;;;21.76;71.20
2178;BME280;1095;50.992;6.798;2023-06-22T02:20:38;100936.09;;;21.77;71.34
2178;BME280;1095;50.992;6.798;2023-06-22T02:23:06;100927.84;;;21.67;71.25
2178;BME280;1095;50.992;6.798;2023-06-22T02:25:33;100930.28;;;21.69;71.10
2178;BME280;1095;50.992;6.798;2023-06-22T02:28:00;100933.38;;;21.66;71.12
2178;BME280;1095;50.992;6.798;2023-06-22T02:30:27;100933.69;;;21.58;71.35
2178;BME280;1095;50.992;6.798;2023-06-22T02:32:53;100928.34;;;21.58;71.79
2178;BME280;1095;50.992;6.798;2023-06-22T02:35:27;100926.50;;;21.58;71.89
2178;BME280;1095;50.992;6.798;2023-06-22T02:37:56;100923.78;;;21.65;71.52
2178;BME280;1095;50.992;6.798;2023-06-22T02:40:23;100923.41;;;21.61;71.78
2178;BME280;1095;50.992;6.798;2023-06-22T02:42:49;100920.22;;;21.52;71.90
2178;BME280;1095;50.992;6.798;2023-06-22T02:45:16;100920.00;;;21.54;72.33
2178;BME280;1095;50.992;6.798;2023-06-22T02:47:43;100916.56;;;21.47;72.37
2178;BME280;1095;50.992;6.798;2023-06-22T02:50:10;100921.31;;;21.45;72.85
2178;BME280;1095;50.992;6.798;2023-06-22T02:52:38;100911.97;;;21.36;72.97
2178;BME280;1095;50.992;6.798;2023-06-22T02:55:06;100909.31;;;21.36;73.01
2178;BME280;1095;50.992;6.798;2023-06-22T02:57:33;100912.56;;;21.38;73.20
2178;BME280;1095;50.992;6.798;2023-06-22T03:00:02;100909.47;;;21.41;73.55
2178;BME280;1095;50.992;6.798;2023-06-22T03:02:31;100900.28;;;21.37;73.52
2178;BME280;1095;50.992;6.798;2023-06-22T03:04:58;100905.19;;;21.40;73.68
2178;BME280;1095;50.992;6.798;2023-06-22T03:07:26;100895.19;;;21.35;73.89
2178;BME280;1095;50.992;6.798;2023-06-22T03:09:54;100897.63;;;21.37;73.96
2178;BME280;1095;50.992;6.798;2023-06-22T03:12:21;100894.75;;;21.38;73.88
2178;BME280;1095;50.992;6.798;2023-06-22T03:14:49;100891.72;;;21.35;74.14
2178;BME280;1095;50.992;6.798;2023-06-22T03:17:16;100889.72;;;21.30;74.37
2178;BME280;1095;50.992;6.798;2023-06-22T03:19:42;100892.81;;;21.27;74.48
2178;BME280;1095;50.992;6.798;2023-06-22T03:22:09;100889.41;;;21.20;74.78
2178;BME280;1095;50.992;6.798;2023-06-22T03:24:35;100889.44;;;21.13;75.11
2178;BME280;1095;50.992;6.798;2023-06-22T03:27:06;100884.78;;;21.09;75.79
2178;BME280;1095;50.992;6.798;2023-06-22T03:29:32;100878.88;;;21.07;75.77
2178;BME280;1095;50.992;6.798;2023-06-22T03:31:59;100879.09;;;21.05;75.94
2178;BME280;1095;50.992;6.798;2023-06-22T03:34:26;100874.78;;;21.04;76.42
2178;BME280;1095;50.992;6.798;2023-06-22T03:36:52;100871.91;;;21.06;76.23
2178;BME280;1095;50.992;6.798;2023-06-22T03:39:19;100868.66;;;21.04;76.33
2178;BME280;1095;50.992;6.798;2023-06-22T03:41:46;100874.34;;;21.07;76.27
2178;BME280;1095;50.992;6.798;2023-06-22T03:44:14;100864.69;;;21.13;76.50
2178;BME280;1095;50.992;6.798;2023-06-22T03:46:40;100866.69;;;21.17;76.49
2178;BME280;1095;50.992;6.798;2023-06-22T03:49:07;100857.47;;;21.20;76.27
2178;BME280;1095;50.992;6.798;2023-06-22T03:51:34;100863.59;;;21.20;76.65
2178;BME280;1095;50.992;6.798;2023-06-22T03:54:00;100864.03;;;21.17;76.60
2178;BME280;1095;50.992;6.798;2023-06-22T03:56:27;100862.41;;;21.16;76.38
2178;BME280;1095;50.992;6.798;2023-06-22T03:58:56;100862.03;;;21.13;77.11
2178;BME280;1095;50.992;6.798;2023-06-22T04:01:24;100871.69;;;21.07;77.37
2178;BME280;1095;50.992;6.798;2023-06-22T04:03:51;100864.16;;;21.04;77.18
2178;BME280;1095;50.992;6.798;2023-06-22T04:10:08;100853.72;;;21.03;77.76
2178;BME280;1095;50.992;6.798;2023-06-22T04:16:02;100843.53;;;21.25;77.06
2178;BME280;1095;50.992;6.798;2023-06-22T04:18:31;100854.75;;;21.27;76.83
2178;BME280;1095;50.992;6.798;2023-06-22T04:20:57;100853.41;;;21.36;76.69
2178;BME280;1095;50.992;6.798;2023-06-22T04:23:24;100857.03;;;21.41;76.15
2178;BME280;1095;50.992;6.798;2023-06-22T04:25:51;100870.34;;;21.41;76.53
2178;BME280;1095;50.992;6.798;2023-06-22T04:28:17;100869.31;;;21.42;76.60
2178;BME280;1095;50.992;6.798;2023-06-22T04:30:44;100879.09;;;21.48;77.29
2178;BME280;1095;50.992;6.798;2023-06-22T04:33:13;100882.78;;;21.47;77.43
2178;BME280;1095;50.992;6.798;2023-06-22T04:35:41;100894.03;;;21.49;77.50
2178;BME280;1095;50.992;6.798;2023-06-22T04:38:08;100885.81;;;21.51;77.77
2178;BME280;1095;50.992;6.798;2023-06-22T04:40:35;100887.44;;;21.52;77.83
2178;BME280;1095;50.992;6.798;2023-06-22T04:43:02;100891.72;;;21.53;77.93
2178;BME280;1095;50.992;6.798;2023-06-22T04:45:29;100895.66;;;21.50;78.37
2178;BME280;1095;50.992;6.798;2023-06-22T04:47:55;100898.31;;;21.50;78.56
2178;BME280;1095;50.992;6.798;2023-06-22T04:50:22;100892.41;;;21.48;78.19
2178;BME280;1095;50.992;6.798;2023-06-22T04:52:50;100897.50;;;21.50;78.69
2178;BME280;1095;50.992;6.798;2023-06-22T04:55:18;100890.53;;;21.49;79.17
2178;BME280;1095;50.992;6.798;2023-06-22T04:57:45;100898.59;;;21.42;79.54
2178;BME280;1095;50.992;6.798;2023-06-22T05:00:14;100898.88;;;21.34;79.94
2178;BME280;1095;50.992;6.798;2023-06-22T05:02:42;100896.22;;;21.34;80.42
2178;BME280;1095;50.992;6.798;2023-06-22T05:05:09;100878.94;;;21.43;79.36
2178;BME280;1095;50.992;6.798;2023-06-22T05:07:39;100879.91;;;21.49;79.20
2178;BME280;1095;50.992;6.798;2023-06-22T05:10:10;100878.13;;;21.43;79.09
2178;BME280;1095;50.992;6.798;2023-06-22T05:12:37;100886.75;;;21.38;79.23
2178;BME280;1095;50.992;6.798;2023-06-22T05:15:05;100875.38;;;21.31;79.43
2178;BME280;1095;50.992;6.798;2023-06-22T05:17:32;100881.84;;;21.17;79.74
2178;BME280;1095;50.992;6.798;2023-06-22T05:20:05;100861.28;;;21.06;80.13
2178;BME280;1095;50.992;6.798;2023-06-22T05:22:39;100885.19;;;21.31;79.91
2178;BME280;1095;50.992;6.798;2023-06-22T05:25:10;100850.50;;;21.19;79.41
2178;BME280;1095;50.992;6.798;2023-06-22T05:27:40;100846.78;;;21.27;78.80
2178;BME280;1095;50.992;6.798;2023-06-22T05:30:09;100854.88;;;21.32;78.58
2178;BME280;1095;50.992;6.798;2023-06-22T05:32:37;100862.44;;;21.35;78.77
2178;BME280;1095;50.992;6.798;2023-06-22T05:35:13;100867.09;;;21.39;78.76
2178;BME280;1095;50.992;6.798;2023-06-22T05:37:43;100849.31;;;21.15;78.96
2178;BME280;1095;50.992;6.798;2023-06-22T05:40:17;100857.09;;;21.16;79.51
2178;BME280;1095;50.992;6.798;2023-06-22T05:45:31;100871.81;;;21.37;80.29
2178;BME280;1095;50.992;6.798;2023-06-22T05:48:01;100869.09;;;21.44;80.51
2178;BME280;1095;50.992;6.798;2023-06-22T05:50:37;100882.19;;;21.64;80.14
2178;BME280;1095;50.992;6.798;2023-06-22T05:53:11;100880.28;;;21.71;80.60
2178;BME280;1095;50.992;6.798;2023-06-22T05:55:40;100876.69;;;21.77;79.98
2178;BME280;1095;50.992;6.798;2023-06-22T05:58:08;100861.75;;;21.76;79.47
2178;BME280;1095;50.992;6.798;2023-06-22T06:01:10;100864.97;;;21.66;79.69
2178;BME280;1095;50.992;6.798;2023-06-22T06:03:37;100864.38;;;21.64;79.65
2178;BME280;1095;50.992;6.798;2023-06-22T06:06:15;100894.00;;;21.86;79.54
2178;BME280;1095;50.992;6.798;2023-06-22T06:08:42;100880.97;;;21.96;78.78
2178;BME280;1095;50.992;6.798;2023-06-22T06:11:13;100897.09;;;22.20;78.07
2178;BME280;1095;50.992;6.798;2023-06-22T06:13:39;100889.56;;;22.28;77.40
2178;BME280;1095;50.992;6.798;2023-06-22T06:16:06;100898.53;;;22.34;77.28
2178;BME280;1095;50.992;6.798;2023-06-22T06:18:32;100895.69;;;22.47;77.05
2178;BME280;1095;50.992;6.798;2023-06-22T06:20:59;100891.28;;;22.52;76.42
2178;BME280;1095;50.992;6.798;2023-06-22T06:23:26;100903.00;;;23.05;75.10
2178;BME280;1095;50.992;6.798;2023-06-22T06:25:52;100901.06;;;24.61;70.92
2178;BME280;1095;50.992;6.798;2023-06-22T06:28:20;100909.16;;;26.15;65.84
2178;BME280;1095;50.992;6.798;2023-06-22T06:30:47;100915.63;;;26.41;63.99
2178;BME280;1095;50.992;6.798;2023-06-22T06:33:17;100911.06;;;26.41;63.39
2178;BME280;1095;50.992;6.798;2023-06-22T06:35:43;100927.59;;;26.60;63.71
2178;BME280;1095;50.992;6.798;2023-06-22T06:38:10;100922.91;;;25.75;65.22
2178;BME280;1095;50.992;6.798;2023-06-22T06:40:37;100935.09;;;25.66;66.66
2178;BME280;1095;50.992;6.798;2023-06-22T06:43:03;100929.41;;;24.73;68.72
2178;BME280;1095;50.992;6.798;2023-06-22T06:45:31;100923.38;;;24.50;70.79
2178;BME280;1095;50.992;6.798;2023-06-22T06:48:00;100921.03;;;24.53;71.78
2178;BME280;1095;50.992;6.798;2023-06-22T06:50:27;100912.63;;;24.33;72.24
2178;BME280;1095;50.992;6.798;2023-06-22T06:52:54;100905.72;;;25.16;71.59
2178;BME280;1095;50.992;6.798;2023-06-22T06:55:21;100900.84;;;25.68;69.12
2178;BME280;1095;50.992;6.798;2023-06-22T06:57:50;100899.09;;;26.05;67.77
2178;BME280;1095;50.992;6.798;2023-06-22T07:00:18;100902.31;;;26.56;67.07
2178;BME280;1095;50.992;6.798;2023-06-22T07:02:46;100906.06;;;26.55;67.37
2178;BME280;1095;50.992;6.798;2023-06-22T07:05:15;100895.97;;;26.35;66.21
2178;BME280;1095;50.992;6.798;2023-06-22T07:07:42;100902.56;;;26.28;68.51
2178;BME280;1095;50.992;6.798;2023-06-22T07:10:09;100888.13;;;26.07;68.61
2178;BME280;1095;50.992;6.798;2023-06-22T07:12:36;100882.38;;;25.50;70.37
2178;BME280;1095;50.992;6.798;2023-06-22T07:15:04;100878.56;;;25.67;70.17
2178;BME280;1095;50.992;6.798;2023-06-22T07:17:33;100876.66;;;26.11;69.41
2178;BME280;1095;50.992;6.798;2023-06-22T07:20:01;100870.91;;;25.76;70.16
2178;BME280;1095;50.992;6.798;2023-06-22T07:22:33;100865.63;;;26.08;69.45
2178;BME280;1095;50.992;6.798;2023-06-22T07:24:59;100869.66;;;27.01;67.62
2178;BME280;1095;50.992;6.798;2023-06-22T07:27:26;100863.97;;;27.35;66.98
2178;BME280;1095;50.992;6.798;2023-06-22T07:29:53;100858.34;;;27.47;66.43
2178;BME280;1095;50.992;6.798;2023-06-22T07:32:20;100860.63;;;27.70;65.12
2178;BME280;1095;50.992;6.798;2023-06-22T07:34:47;100857.41;;;27.68;66.30
2178;BME280;1095;50.992;6.798;2023-06-22T07:37:15;100865.53;;;27.93;66.30
2178;BME280;1095;50.992;6.798;2023-06-22T07:39:41;100852.88;;;27.84;65.35
2178;BME280;1095;50.992;6.798;2023-06-22T07:42:08;100851.63;;;28.72;64.40
2178;BME280;1095;50.992;6.798;2023-06-22T07:44:35;100844.63;;;28.26;65.65
2178;BME280;1095;50.992;6.798;2023-06-22T07:47:02;100832.47;;;28.89;64.26
2178;BME280;1095;50.992;6.798;2023-06-22T07:49:28;100825.47;;;28.02;64.78
2178;BME280;1095;50.992;6.798;2023-06-22T07:51:55;100836.53;;;28.21;65.07
2178;BME280;1095;50.992;6.798;2023-06-22T07:54:23;100844.91;;;27.47;66.75
2178;BME280;1095;50.992;6.798;2023-06-22T07:56:50;100836.25;;;28.78;63.83
2178;BME280;1095;50.992;6.798;2023-06-22T07:59:17;100834.28;;;29.29;62.66
2178;BME280;1095;50.992;6.798;2023-06-22T08:01:44;100834.81;;;27.69;65.49
2178;BME280;1095;50.992;6.798;2023-06-22T08:04:11;100827.72;;;29.40;62.93
2178;BME280;1095;50.992;6.798;2023-06-22T08:06:37;100812.81;;;28.84;62.81
2178;BME280;1095;50.992;6.798;2023-06-22T08:09:04;100816.28;;;28.99;63.54
2178;BME280;1095;50.992;6.798;2023-06-22T08:11:32;100806.38;;;28.85;64.34
2178;BME280;1095;50.992;6.798;2023-06-22T08:13:59;100799.00;;;29.75;62.07
2178;BME280;1095;50.992;6.798;2023-06-22T08:16:25;100792.03;;;29.69;60.90
2178;BME280;1095;50.992;6.798;2023-06-22T08:18:52;100799.69;;;29.47;62.21
2178;BME280;1095;50.992;6.798;2023-06-22T08:21:20;100790.25;;;28.59;64.97
2178;BME280;1095;50.992;6.798;2023-06-22T08:23:47;100792.66;;;28.51;66.19
2178;BME280;1095;50.992;6.798;2023-06-22T08:26:14;100771.38;;;28.64;64.68
2178;BME280;1095;50.992;6.798;2023-06-22T08:28:42;100779.47;;;28.59;63.92
2178;BME280;1095;50.992;6.798;2023-06-22T08:31:08;100763.59;;;28.42;63.05
2178;BME280;1095;50.992;6.798;2023-06-22T08:33:39;100777.53;;;28.95;63.26
2178;BME280;1095;50.992;6.798;2023-06-22T08:36:13;100775.72;;;28.40;65.02
2178;BME280;1095;50.992;6.798;2023-06-22T08:38:40;100776.94;;;29.09;63.91
2178;BME280;1095;50.992;6.798;2023-06-22T08:41:07;100773.94;;;29.20;63.61
2178;BME280;1095;50.992;6.798;2023-06-22T08:43:33;100768.66;;;28.90;64.62
2178;BME280;1095;50.992;6.798;2023-06-22T08:46:01;100754.59;;;29.03;63.57
2178;BME280;1095;50.992;6.798;2023-06-22T08:48:29;100756.28;;;28.79;64.01
2178;BME280;1095;50.992;6.798;2023-06-22T08:50:56;100749.88;;;28.39;64.06
2178;BME280;1095;50.992;6.798;2023-06-22T08:53:22;100735.88;;;28.42;65.10
2178;BME280;1095;50.992;6.798;2023-06-22T08:55:49;100725.16;;;27.81;65.74
2178;BME280;1095;50.992;6.798;2023-06-22T08:58:17;100723.00;;;28.24;65.75
2178;BME280;1095;50.992;6.798;2023-06-22T09:00:45;100724.28;;;28.62;63.89
2178;BME280;1095;50.992;6.798;2023-06-22T09:03:13;100732.94;;;27.93;64.43
2178;BME280;1095;50.992;6.798;2023-06-22T09:05:43;100724.59;;;27.94;64.86
2178;BME280;1095;50.992;6.798;2023-06-22T09:08:10;100725.84;;;28.83;63.79
2178;BME280;1095;50.992;6.798;2023-06-22T09:10:37;100724.88;;;29.23;62.21
2178;BME280;1095;50.992;6.798;2023-06-22T09:13:04;100727.47;;;29.38;62.01
2178;BME280;1095;50.992;6.798;2023-06-22T09:15:30;100718.00;;;29.51;61.35
2178;BME280;1095;50.992;6.798;2023-06-22T09:17:57;100710.72;;;29.47;60.22
2178;BME280;1095;50.992;6.798;2023-06-22T09:20:25;100701.84;;;28.87;61.35
2178;BME280;1095;50.992;6.798;2023-06-22T09:22:52;100707.97;;;29.91;59.82
2178;BME280;1095;50.992;6.798;2023-06-22T09:25:19;100691.84;;;30.20;58.00
2178;BME280;1095;50.992;6.798;2023-06-22T09:27:46;100685.13;;;30.17;58.31
2178;BME280;1095;50.992;6.798;2023-06-22T09:30:13;100680.19;;;30.24;58.12
2178;BME280;1095;50.992;6.798;2023-06-22T09:32:39;100681.34;;;30.18;58.30
2178;BME280;1095;50.992;6.798;2023-06-22T09:35:08;100676.34;;;30.01;58.52
2178;BME280;1095;50.992;6.798;2023-06-22T09:37:36;100671.28;;;29.61;59.62
2178;BME280;1095;50.992;6.798;2023-06-22T09:40:04;100666.63;;;29.71;59.54
2178;BME280;1095;50.992;6.798;2023-06-22T09:42:34;100658.84;;;29.26;60.46
2178;BME280;1095;50.992;6.798;2023-06-22T09:45:01;100666.28;;;28.90;61.83
2178;BME280;1095;50.992;6.798;2023-06-22T09:47:29;100662.50;;;28.96;61.46
2178;BME280;1095;50.992;6.798;2023-06-22T09:49:55;100653.66;;;28.85;62.33
2178;BME280;1095;50.992;6.798;2023-06-22T09:52:24;100668.38;;;29.08;61.84
2178;BME280;1095;50.992;6.798;2023-06-22T09:54:52;100659.81;;;28.96;61.54
2178;BME280;1095;50.992;6.798;2023-06-22T09:57:19;100668.88;;;29.15;62.08
2178;BME280;1095;50.992;6.798;2023-06-22T09:59:45;100662.50;;;28.96;62.27
2178;BME280;1095;50.992;6.798;2023-06-22T10:02:12;100671.19;;;28.78;62.65
2178;BME280;1095;50.992;6.798;2023-06-22T10:04:39;100671.25;;;28.62;63.54
2178;BME280;1095;50.992;6.798;2023-06-22T10:07:06;100659.44;;;28.38;64.02
2178;BME280;1095;50.992;6.798;2023-06-22T10:09:32;100682.63;;;28.03;64.82
2178;BME280;1095;50.992;6.798;2023-06-22T10:12:03;100684.78;;;28.01;64.88
2178;BME280;1095;50.992;6.798;2023-06-22T10:14:30;100699.31;;;27.65;65.97
2178;BME280;1095;50.992;6.798;2023-06-22T10:16:57;100716.81;;;27.72;66.46
2178;BME280;1095;50.992;6.798;2023-06-22T10:19:23;100731.03;;;27.93;66.03
2178;BME280;1095;50.992;6.798;2023-06-22T10:21:50;100731.31;;;27.77;65.80
2178;BME280;1095;50.992;6.798;2023-06-22T10:24:17;100755.50;;;27.61;71.44
2178;BME280;1095;50.992;6.798;2023-06-22T10:26:44;100763.22;;;27.37;76.37
2178;BME280;1095;50.992;6.798;2023-06-22T10:29:12;100760.91;;;27.04;77.21
2178;BME280;1095;50.992;6.798;2023-06-22T10:31:38;100772.66;;;26.93;79.07
2178;BME280;1095;50.992;6.798;2023-06-22T10:34:05;100771.38;;;26.58;79.59
2178;BME280;1095;50.992;6.798;2023-06-22T10:36:32;100793.16;;;26.30;81.63
2178;BME280;1095;50.992;6.798;2023-06-22T10:38:58;100801.66;;;26.22;83.61
2178;BME280;1095;50.992;6.798;2023-06-22T10:41:27;100816.09;;;26.16;85.01
2178;BME280;1095;50.992;6.798;2023-06-22T10:43:55;100821.03;;;26.02;87.17
2178;BME280;1095;50.992;6.798;2023-06-22T10:46:24;100826.31;;;25.92;88.91
2178;BME280;1095;50.992;6.798;2023-06-22T10:48:50;100823.22;;;25.56;90.07
2178;BME280;1095;50.992;6.798;2023-06-22T10:51:19;100826.34;;;25.26;90.89
2178;BME280;1095;50.992;6.798;2023-06-22T10:53:46;100826.50;;;24.98;93.71
2178;BME280;1095;50.992;6.798;2023-06-22T10:56:12;100839.63;;;24.66;96.36
2178;BME280;1095;50.992;6.798;2023-06-22T10:58:39;100833.53;;;24.37;97.78
2178;BME280;1095;50.992;6.798;2023-06-22T11:03:40;100813.25;;;24.07;100.00
2178;BME280;1095;50.992;6.798;2023-06-22T11:13:00;100792.97;;;23.95;100.00
2178;BME280;1095;50.992;6.798;2023-06-22T11:15:37;100789.66;;;24.04;100.00
2178;BME280;1095;50.992;6.798;2023-06-22T11:18:19;100757.84;;;23.74;100.00
2178;BME280;1095;50.992;6.798;2023-06-22T11:21:04;100762.75;;;23.94;100.00
2178;BME280;1095;50.992;6.798;2023-06-22T11:23:41;100744.53;;;23.91;100.00
2178;BME280;1095;50.992;6.798;2023-06-22T11:26:21;100733.84;;;23.91;100.00
2178;BME280;1095;50.992;6.798;2023-06-22T11:28:53;100739.75;;;23.93;100.00
2178;BME280;1095;50.992;6.798;2023-06-22T11:32:42;100697.44;;;23.73;100.00
2178;BME280;1095;50.992;6.798;2023-06-22T11:35:14;100700.69;;;23.59;100.00
2178;BME280;1095;50.992;6.798;2023-06-22T11:38:06;100672.03;;;23.42;100.00
2178;BME280;1095;50.992;6.798;2023-06-22T11:40:36;100669.47;;;23.47;100.00
2178;BME280;1095;50.992;6.798;2023-06-22T11:43:05;100661.47;;;23.64;100.00
2178;BME280;1095;50.992;6.798;2023-06-22T11:46:00;100618.28;;;23.84;100.00
2178;BME280;1095;50.992;6.798;2023-06-22T11:48:42;100610.34;;;23.56;100.00
2178;BME280;1095;50.992;6.798;2023-06-22T11:51:17;100618.50;;;23.66;100.00
2178;BME280;1095;50.992;6.798;2023-06-22T11:54:00;100626.69;;;23.59;100.00
2178;BME280;1095;50.992;6.798;2023-06-22T11:56:29;100598.75;;;23.22;100.00
2178;BME280;1095;50.992;6.798;2023-06-22T11:58:57;100606.00;;;22.69;100.00
2178;BME280;1095;50.992;6.798;2023-06-22T12:01:33;100656.13;;;22.79;100.00
2178;BME280;1095;50.992;6.798;2023-06-22T12:04:08;100675.44;;;23.09;100.00
2178;BME280;1095;50.992;6.798;2023-06-22T12:06:40;100674.72;;;23.14;100.00
2178;BME280;1095;50.992;6.798;2023-06-22T12:09:22;100685.53;;;23.36;100.00
2178;BME280;1095;50.992;6.798;2023-06-22T12:11:53;100669.59;;;23.86;100.00
2178;BME280;1095;50.992;6.798;2023-06-22T12:14:29;100675.66;;;24.15;100.00
2178;BME280;1095;50.992;6.798;2023-06-22T12:20:11;100663.75;;;25.00;100.00
2178;BME280;1095;50.992;6.798;2023-06-22T12:23:09;100626.16;;;24.46;100.00
2178;BME280;1095;50.992;6.798;2023-06-22T12:25:39;100612.88;;;24.34;100.00
2178;BME280;1095;50.992;6.798;2023-06-22T12:28:24;100622.84;;;24.39;100.00
2178;BME280;1095;50.992;6.798;2023-06-22T12:30:54;100631.34;;;24.36;100.00
2178;BME280;1095;50.992;6.798;2023-06-22T12:34:01;100610.38;;;24.28;100.00
2178;BME280;1095;50.992;6.798;2023-06-22T12:36:41;100603.84;;;24.62;100.00
2178;BME280;1095;50.992;6.798;2023-06-22T12:39:15;100620.88;;;24.51;98.82
2178;BME280;1095;50.992;6.798;2023-06-22T12:42:22;100613.41;;;24.53;98.62
2178;BME280;1095;50.992;6.798;2023-06-22T12:45:37;100601.88;;;24.74;99.81
2178;BME280;1095;50.992;6.798;2023-06-22T12:48:18;100603.47;;;24.75;100.00
2178;BME280;1095;50.992;6.798;2023-06-22T12:50:45;100603.75;;;24.52;100.00
2178;BME280;1095;50.992;6.798;2023-06-22T12:53:38;100618.59;;;24.65;99.96
2178;BME280;1095;50.992;6.798;2023-06-22T12:56:08;100600.03;;;24.53;98.71
2178;BME280;1095;50.992;6.798;2023-06-22T12:58:46;100588.03;;;24.56;94.87
2178;BME280;1095;50.992;6.798;2023-06-22T13:01:22;100571.59;;;24.47;96.35
2178;BME280;1095;50.992;6.798;2023-06-22T13:03:57;100587.81;;;24.62;95.39
2178;BME280;1095;50.992;6.798;2023-06-22T13:06:24;100599.06;;;24.86;94.67
2178;BME280;1095;50.992;6.798;2023-06-22T13:08:51;100580.03;;;24.61;93.76
2178;BME280;1095;50.992;6.798;2023-06-22T13:11:17;100584.00;;;24.80;93.39
2178;BME280;1095;50.992;6.798;2023-06-22T13:13:46;100570.19;;;25.15;91.16
2178;BME280;1095;50.992;6.798;2023-06-22T13:16:12;100558.34;;;25.38;91.16
2178;BME280;1095;50.992;6.798;2023-06-22T13:18:39;100558.56;;;25.31;90.54
2178;BME280;1095;50.992;6.798;2023-06-22T13:21:06;100557.19;;;24.97;90.62
2178;BME280;1095;50.992;6.798;2023-06-22T13:23:33;100548.56;;;24.95;92.36
2178;BME280;1095;50.992;6.798;2023-06-22T13:25:59;100541.53;;;24.89;91.18
2178;BME280;1095;50.992;6.798;2023-06-22T13:28:26;100553.94;;;24.95;91.80
2178;BME280;1095;50.992;6.798;2023-06-22T13:30:55;100542.97;;;25.23;91.11
2178;BME280;1095;50.992;6.798;2023-06-22T13:33:22;100535.13;;;25.17;89.33
2178;BME280;1095;50.992;6.798;2023-06-22T13:35:49;100523.56;;;25.11;89.64
2178;BME280;1095;50.992;6.798;2023-06-22T13:38:15;100534.22;;;25.33;89.85
2178;BME280;1095;50.992;6.798;2023-06-22T13:40:42;100520.69;;;25.50;89.47
2178;BME280;1095;50.992;6.798;2023-06-22T13:43:09;100496.34;;;24.92;88.88
2178;BME280;1095;50.992;6.798;2023-06-22T13:45:36;100492.50;;;25.10;90.10